Linfield, Pennsylvania
Current Conditions -  °F | °C
As of 6:54 AM on Monday 20 Oct 2014 (Local Time) from KPTW Reporting Station
Clear Clear  
Wind Chill: 31°   Ceiling: Unl
Heat Index: 31°   Visibility: 10mi
Dew Point: 29°   Wind: 0mph
Humidity: 92%   Direction: NA
Pressure: 30.12"   Gusts: NA
Location:  40.2034°N, 75.5319°W
Report Text: KPTW 201054Z AUTO 00000KT 10SM CLR M01/M02 A3012 RMK AO2 SLP199 I1000 T10061017
Loading
Personal Weather Stations






























Interactive Weather Map
Tropical Storm Tracking
New forecast layout! Learn more

10-Day Weather Forecast

Advertisements
Track Severe Weather on mobile